Time,TemperatureF,DewpointF,PressureIn,WindDirection,WindDirectionDegrees,WindSpeedMPH,WindSpeedGustMPH,Humidity,HourlyPrecipIn,Conditions,Clouds,dailyrainin,SoftwareType,DateUTC
2013-03-23 00:00:00,36.3,18.0,29.95,NW,306,9.0,12.0,47,0.00,CLR,,0.00,WeatherDisplay:10.37,2013-03-23 04:00:00,
2013-03-23 00:15:00,36.3,18.0,29.95,NW,320,10.0,12.0,47,0.00,CLR,,0.00,WeatherDisplay:10.37,2013-03-23 04:15:00,
2013-03-23 00:30:00,35.8,18.5,29.99,NW,321,12.0,15.0,49,0.00,CLR,,0.00,WeatherDisplay:10.37,2013-03-23 04:30:00,
2013-03-23 00:45:00,35.4,19.1,29.99,NW,313,10.0,12.0,51,0.00,CLR,,0.00,WeatherDisplay:10.37,2013-03-23 04:45:00,
2013-03-23 01:00:00,35.2,20.2,29.99,NW,316,8.0,13.0,54,0.00,CLR,,0.00,WeatherDisplay:10.37,2013-03-23 05:00:00,
2013-03-23 01:15:00,35.1,18.3,29.99,NW,305,10.0,16.0,50,0.00,CLR,,0.00,WeatherDisplay:10.37,2013-03-23 05:15:00,
2013-03-23 01:30:00,35.1,18.7,29.99,NW,309,12.0,16.0,51,0.00,CLR,,0.00,WeatherDisplay:10.37,2013-03-23 05:30:00,
2013-03-23 01:45:00,34.9,19.0,29.99,NW,314,9.0,11.0,52,0.00,CLR,,0.00,WeatherDisplay:10.37,2013-03-23 05:45:00,
2013-03-23 02:00:00,34.7,20.2,29.99,NW,316,9.0,9.0,55,0.00,CLR,,0.00,WeatherDisplay:10.37,2013-03-23 06:00:00,
2013-03-23 02:15:00,34.9,19.5,29.99,NW,323,9.0,13.0,53,0.00,CLR,,0.00,WeatherDisplay:10.37,2013-03-23 06:15:00,
2013-03-23 02:30:00,34.3,19.0,29.99,NNW,329,13.0,16.0,53,0.00,CLR,,0.00,WeatherDisplay:10.37,2013-03-23 06:30:00,
2013-03-23 02:45:00,34.0,19.1,29.99,NNW,328,10.0,12.0,54,0.00,CLR,,0.00,WeatherDisplay:10.37,2013-03-23 06:45:00,
2013-03-23 03:00:00,34.0,19.1,29.95,NW,312,9.0,14.0,54,0.00,CLR,,0.00,WeatherDisplay:10.37,2013-03-23 07:00:00,
2013-03-23 03:15:00,33.8,18.9,29.95,NW,307,10.0,14.0,54,0.00,CLR,,0.00,WeatherDisplay:10.37,2013-03-23 07:15:00,
2013-03-23 03:30:00,33.8,17.6,29.95,NW,315,12.0,13.0,51,0.00,CLR,,0.00,WeatherDisplay:10.37,2013-03-23 07:30:00,
2013-03-23 03:45:00,34.0,17.7,29.95,NW,307,10.0,15.0,51,0.00,CLR,,0.00,WeatherDisplay:10.37,2013-03-23 07:45:00,
2013-03-23 04:00:00,33.6,18.7,29.95,NW,322,10.0,12.0,54,0.00,CLR,,0.00,WeatherDisplay:10.37,2013-03-23 08:00:00,
2013-03-23 04:15:00,33.6,18.7,29.95,NW,307,10.0,15.0,54,0.00,CLR,,0.00,WeatherDisplay:10.37,2013-03-23 08:15:00,
2013-03-23 04:30:00,33.6,17.8,29.95,NW,311,12.0,18.0,52,0.00,CLR,,0.00,WeatherDisplay:10.37,2013-03-23 08:30:00,
2013-03-23 04:45:00,33.4,18.6,29.95,NW,318,12.0,12.0,54,0.00,CLR,,0.00,WeatherDisplay:10.37,2013-03-23 08:45:00,
2013-03-23 05:00:00,33.3,18.4,29.95,NW,316,9.0,13.0,54,0.00,CLR,,0.00,WeatherDisplay:10.37,2013-03-23 09:00:00,
2013-03-23 05:15:00,33.6,18.7,29.95,NW,308,9.0,15.0,54,0.00,CLR,,0.00,WeatherDisplay:10.37,2013-03-23 09:15:00,
2013-03-23 05:30:00,33.4,19.4,29.95,NW,311,12.0,15.0,56,0.00,CLR,,0.00,WeatherDisplay:10.37,2013-03-23 09:30:00,
2013-03-23 05:45:00,33.1,19.5,29.95,WNW,298,8.0,9.0,57,0.00,CLR,,0.00,WeatherDisplay:10.37,2013-03-23 09:45:00,
2013-03-23 06:00:00,32.4,19.2,29.95,NW,307,6.0,7.0,58,0.00,CLR,,0.00,WeatherDisplay:10.37,2013-03-23 10:00:00,
2013-03-23 06:15:00,32.7,19.1,29.95,WNW,298,6.0,8.0,57,0.00,CLR,,0.00,WeatherDisplay:10.37,2013-03-23 10:15:00,
2013-03-23 06:30:00,32.9,19.3,29.99,WNW,299,7.0,9.0,57,0.00,CLR,,0.00,WeatherDisplay:10.37,2013-03-23 10:30:00,
2013-03-23 06:45:00,32.9,18.9,29.99,NW,306,10.0,13.0,56,0.00,CLR,,0.00,WeatherDisplay:10.37,2013-03-23 10:45:00,
2013-03-23 07:00:00,32.9,18.9,29.99,WNW,303,10.0,10.0,56,0.00,CLR,,0.00,WeatherDisplay:10.37,2013-03-23 11:00:00,
2013-03-23 07:15:00,32.9,19.3,29.99,NW,305,9.0,12.0,57,0.00,CLR,,0.00,WeatherDisplay:10.37,2013-03-23 11:15:00,
2013-03-23 07:30:00,33.4,19.4,29.99,NW,310,8.0,10.0,56,0.00,CLR,,0.00,WeatherDisplay:10.37,2013-03-23 11:30:00,
2013-03-23 07:45:00,33.6,19.2,29.99,NW,307,9.0,13.0,55,0.00,CLR,,0.00,WeatherDisplay:10.37,2013-03-23 11:45:00,
2013-03-23 08:00:00,34.2,19.2,29.99,NW,305,9.0,13.0,54,0.00,CLR,,0.00,WeatherDisplay:10.37,2013-03-23 12:00:00,
2013-03-23 08:15:00,34.9,19.0,29.99,NW,319,9.0,12.0,52,0.00,FEW,,0.00,WeatherDisplay:10.37,2013-03-23 12:15:00,
2013-03-23 08:30:00,35.6,18.8,29.99,NW,310,9.0,12.0,50,0.00,FEW,,0.00,WeatherDisplay:10.37,2013-03-23 12:30:00,
2013-03-23 08:45:00,36.0,18.6,29.99,WNW,301,12.0,14.0,49,0.00,CLR,,0.00,WeatherDisplay:10.37,2013-03-23 12:45:00,
2013-03-23 09:00:00,36.3,18.5,29.99,WNW,301,12.0,14.0,48,0.00,CLR,,0.00,WeatherDisplay:10.37,2013-03-23 13:00:00,
2013-03-23 09:15:00,37.0,18.1,29.99,WNW,292,10.0,16.0,46,0.00,CLR,,0.00,WeatherDisplay:10.37,2013-03-23 13:15:00,
2013-03-23 09:30:00,37.6,17.6,29.99,WNW,297,9.0,16.0,44,0.00,CLR,,0.00,WeatherDisplay:10.37,2013-03-23 13:30:00,
2013-03-23 09:45:00,37.8,18.3,29.99,NW,310,10.0,16.0,45,0.00,CLR,,0.00,WeatherDisplay:10.37,2013-03-23 13:45:00,
2013-03-23 10:00:00,38.3,18.3,29.99,WNW,294,13.0,17.0,44,0.00,CLR,,0.00,WeatherDisplay:10.37,2013-03-23 14:00:00,
2013-03-23 10:15:00,38.5,18.4,29.99,WNW,296,14.0,17.0,44,0.00,CLR,,0.00,WeatherDisplay:10.37,2013-03-23 14:15:00,
2013-03-23 10:30:00,38.7,16.4,29.99,WNW,300,16.0,21.0,40,0.00,CLR,,0.00,WeatherDisplay:10.37,2013-03-23 14:30:00,
2013-03-23 10:45:00,39.7,17.4,29.99,WNW,301,16.0,16.0,40,0.00,CLR,,0.00,WeatherDisplay:10.37,2013-03-23 14:45:00,
2013-03-23 11:00:00,39.9,17.5,29.99,NW,306,13.0,20.0,40,0.00,CLR,,0.00,WeatherDisplay:10.37,2013-03-23 15:00:00,
2013-03-23 11:15:00,39.0,16.1,29.99,WNW,298,16.0,18.0,39,0.00,CLR,,0.00,WeatherDisplay:10.37,2013-03-23 15:15:00,
2013-03-23 11:30:00,41.0,18.5,29.99,WNW,288,14.0,16.0,40,0.00,CLR,,0.00,WeatherDisplay:10.37,2013-03-23 15:30:00,
2013-03-23 11:45:00,41.0,17.9,29.99,WNW,301,12.0,18.0,39,0.00,CLR,,0.00,WeatherDisplay:10.37,2013-03-23 15:45:00,
2013-03-23 12:00:00,41.7,18.5,29.99,WNW,301,15.0,15.0,39,0.00,CLR,,0.00,WeatherDisplay:10.37,2013-03-23 16:00:00,
2013-03-23 12:15:00,43.2,19.8,29.95,WNW,292,13.0,15.0,39,0.00,CLR,,0.00,WeatherDisplay:10.37,2013-03-23 16:15:00,
2013-03-23 12:30:00,43.2,19.8,29.95,WNW,298,14.0,15.0,39,0.00,CLR,,0.00,WeatherDisplay:10.37,2013-03-23 16:30:00,
2013-03-23 12:45:00,42.4,19.2,29.95,NW,313,15.0,17.0,39,0.00,CLR,,0.00,WeatherDisplay:10.37,2013-03-23 16:45:00,
2013-03-23 13:00:00,43.3,20.0,29.95,NW,310,14.0,16.0,39,0.00,CLR,,0.00,WeatherDisplay:10.37,2013-03-23 17:00:00,
2013-03-23 13:15:00,43.2,19.8,29.95,NW,311,14.0,16.0,39,0.00,CLR,,0.00,WeatherDisplay:10.37,2013-03-23 17:15:00,
2013-03-23 13:30:00,44.4,21.0,29.93,WNW,303,14.0,16.0,39,0.00,CLR,,0.00,WeatherDisplay:10.37,2013-03-23 17:30:00,
2013-03-23 13:45:00,44.4,21.0,29.93,West,279,13.0,17.0,39,0.00,CLR,,0.00,WeatherDisplay:10.37,2013-03-23 17:45:00,
2013-03-23 14:00:00,44.2,20.8,29.93,NW,310,12.0,17.0,39,0.00,CLR,,0.00,WeatherDisplay:10.37,2013-03-23 18:00:00,
2013-03-23 14:15:00,44.4,21.0,29.93,NW,307,13.0,16.0,39,0.00,CLR,,0.00,WeatherDisplay:10.37,2013-03-23 18:15:00,
2013-03-23 14:30:00,45.0,21.5,29.90,NW,312,14.0,18.0,39,0.00,CLR,,0.00,WeatherDisplay:10.37,2013-03-23 18:30:00,
2013-03-23 14:45:00,45.9,22.3,29.90,NW,314,12.0,13.0,39,0.00,CLR,,0.00,WeatherDisplay:10.37,2013-03-23 18:45:00,
2013-03-23 15:00:00,45.0,21.5,29.90,NNW,331,10.0,11.0,39,0.00,CLR,,0.00,WeatherDisplay:10.37,2013-03-23 19:00:00,
2013-03-23 15:15:00,46.0,22.4,29.90,NW,316,10.0,13.0,39,0.00,CLR,,0.00,WeatherDisplay:10.37,2013-03-23 19:15:00,
2013-03-23 15:30:00,46.2,23.2,29.90,NW,313,10.0,13.0,40,0.00,CLR,,0.00,WeatherDisplay:10.37,2013-03-23 19:30:00,
2013-03-23 15:45:00,46.6,25.8,29.90,NW,309,9.0,10.0,44,0.00,CLR,,0.00,WeatherDisplay:10.37,2013-03-23 19:45:00,
2013-03-23 16:00:00,46.2,25.5,29.90,WNW,297,12.0,14.0,44,0.00,CLR,,0.00,WeatherDisplay:10.37,2013-03-23 20:00:00,
2013-03-23 16:15:00,46.4,22.8,29.90,WNW,295,12.0,14.0,39,0.00,CLR,,0.00,WeatherDisplay:10.37,2013-03-23 20:15:00,
2013-03-23 16:30:00,47.1,24.0,29.90,WNW,296,12.0,14.0,40,0.00,CLR,,0.00,WeatherDisplay:10.37,2013-03-23 20:30:00,
2013-03-23 16:45:00,46.6,22.9,29.90,WNW,288,12.0,13.0,39,0.00,CLR,,0.00,WeatherDisplay:10.37,2013-03-23 20:45:00,
2013-03-23 17:00:00,46.9,23.2,29.90,WNW,293,12.0,14.0,39,0.00,CLR,,0.00,WeatherDisplay:10.37,2013-03-23 21:00:00,
2013-03-23 20:15:00,41.0,26.9,29.93,NW,311,6.0,7.0,57,0.00,CLR,,0.00,WeatherDisplay:10.37,2013-03-24 00:15:00,
2013-03-23 20:30:00,39.9,26.7,29.93,NW,308,5.0,5.0,59,0.00,CLR,,0.00,WeatherDisplay:10.37,2013-03-24 00:30:00,
2013-03-23 20:45:00,39.4,26.6,29.93,NW,323,2.0,4.0,60,0.00,CLR,,0.00,WeatherDisplay:10.37,2013-03-24 00:45:00,
2013-03-23 21:00:00,39.2,26.1,29.93,NNW,331,2.0,3.0,59,0.00,CLR,,0.00,WeatherDisplay:10.37,2013-03-24 01:00:00,
2013-03-23 21:15:00,39.2,24.8,29.95,NNW,333,2.0,5.0,56,0.00,CLR,,0.00,WeatherDisplay:10.37,2013-03-24 01:15:00,
2013-03-23 21:45:00,39.9,22.3,29.95,NNW,331,6.0,6.0,49,0.00,CLR,,0.00,WeatherDisplay:10.37,2013-03-24 01:45:00,
2013-03-23 22:00:00,39.0,21.9,29.95,NW,312,5.0,7.0,50,0.00,CLR,,0.00,WeatherDisplay:10.37,2013-03-24 02:00:00,
2013-03-23 22:15:00,39.0,22.4,29.95,NW,311,5.0,7.0,51,0.00,CLR,,0.00,WeatherDisplay:10.37,2013-03-24 02:15:00,
2013-03-23 22:30:00,38.7,23.0,29.95,NW,320,5.0,7.0,53,0.00,CLR,,0.00,WeatherDisplay:10.37,2013-03-24 02:30:00,
2013-03-23 22:45:00,38.3,22.6,29.95,NW,321,3.0,5.0,53,0.00,CLR,,0.00,WeatherDisplay:10.37,2013-03-24 02:45:00,
2013-03-23 23:00:00,37.8,22.6,29.95,NW,318,2.0,5.0,54,0.00,CLR,,0.00,WeatherDisplay:10.37,2013-03-24 03:00:00,
2013-03-23 23:15:00,37.4,22.3,29.95,NW,316,3.0,3.0,54,0.00,CLR,,0.00,WeatherDisplay:10.37,2013-03-24 03:15:00,
2013-03-23 23:30:00,37.4,22.3,29.95,NW,321,3.0,6.0,54,0.00,CLR,,0.00,WeatherDisplay:10.37,2013-03-24 03:30:00,
2013-03-23 23:45:00,37.0,22.4,29.95,WNW,296,2.0,6.0,55,0.00,CLR,,0.00,WeatherDisplay:10.37,2013-03-24 03:45:00,